Back to Top

Language: 

My Weather Underground Personal Weather Station Historical Data with Graphs...

Delerius Weather Station Historical Data
Daily Summary for April 4, 2017 Units:  Both    English   Metric
« Previous Day
Next Day »
Daily Weekly Monthly Yearly Custom
  High: Low: Average:
Temperature: 59.0 °F /  15 °C 44.2 °F /  6.8 °C 51.5 °F /  10.8 °C
Dew Point: 50.0 °F /  10 °C 38.5 °F /  3.6 °C 45.2 °F /  7.3 °C
Humidity: 91 % 56 % 80 %
Wind Speed: 11.0 mph /  17.7 km/h - 5 mph /  8 km/h
Wind Gust: 21.0 mph /  33.8 km/h - -
Wind:- - WNW
Pressure: 30.43 in /  1030.4 hPa 30.12 in /  1019.9 hPa -
Precipitation: 0.00 in /  0 mm    
Historical Graphs
 
 
Tabular Data for April 4, 2017
Time Temperature Dew Point Pressure Wind Wind Speed Wind Gust Humidity Rainfall Rate (Hourly) solar Conditions
00:01 52.5 °F /  11.4 °C 45.5 °F /  7.5 °C 30.14 in /  1020.5 hPa Calm   5.0 mph /  8 km/h 77 % 0.00 in /  0 mm 0 W/m2
00:06 52.5 °F /  11.4 °C 45.5 °F /  7.5 °C 30.14 in /  1020.5 hPa Calm   4.0 mph /  6.4 km/h 77 % 0.00 in /  0 mm 0 W/m2
00:11 52.5 °F /  11.4 °C 45.5 °F /  7.5 °C 30.14 in /  1020.5 hPa NW 1.0 mph /  1.6 km/h 6.0 mph /  9.7 km/h 77 % 0.00 in /  0 mm 0 W/m2
00:16 52.5 °F /  11.4 °C 45.2 °F /  7.3 °C 30.14 in /  1020.5 hPa West 2.0 mph /  3.2 km/h 8.0 mph /  12.9 km/h 76 % 0.00 in /  0 mm 0 W/m2
00:21 52.7 °F /  11.5 °C 45.3 °F /  7.4 °C 30.14 in /  1020.5 hPa SSW 3.0 mph /  4.8 km/h 10.0 mph /  16.1 km/h 76 % 0.00 in /  0 mm 0 W/m2
00:26 52.7 °F /  11.5 °C 45.3 °F /  7.4 °C 30.14 in /  1020.5 hPa SSE 1.0 mph /  1.6 km/h 10.0 mph /  16.1 km/h 76 % 0.00 in /  0 mm 0 W/m2
00:31 52.7 °F /  11.5 °C 45.3 °F /  7.4 °C 30.14 in /  1020.5 hPa SSW 1.0 mph /  1.6 km/h 8.0 mph /  12.9 km/h 76 % 0.00 in /  0 mm 0 W/m2
00:36 52.7 °F /  11.5 °C 45.3 °F /  7.4 °C 30.13 in /  1020.2 hPa SSW 5.0 mph /  8 km/h 11.0 mph /  17.7 km/h 76 % 0.00 in /  0 mm 0 W/m2
00:42 52.7 °F /  11.5 °C 45.3 °F /  7.4 °C 30.13 in /  1020.2 hPa SSW 8.0 mph /  12.9 km/h 14.0 mph /  22.5 km/h 76 % 0.00 in /  0 mm 0 W/m2
00:47 52.5 °F /  11.4 °C 45.2 °F /  7.3 °C 30.13 in /  1020.2 hPa SW 8.0 mph /  12.9 km/h 14.0 mph /  22.5 km/h 76 % 0.00 in /  0 mm 0 W/m2
00:52 52.3 °F /  11.3 °C 45.3 °F /  7.4 °C 30.13 in /  1020.2 hPa WSW 6.0 mph /  9.7 km/h 9.0 mph /  14.5 km/h 77 % 0.00 in /  0 mm 0 W/m2
00:57 52.3 °F /  11.3 °C 45.3 °F /  7.4 °C 30.12 in /  1019.9 hPa WSW 5.0 mph /  8 km/h 12.0 mph /  19.3 km/h 77 % 0.00 in /  0 mm 0 W/m2
01:02 52.2 °F /  11.2 °C 45.2 °F /  7.3 °C 30.12 in /  1019.9 hPa WSW 5.0 mph /  8 km/h 12.0 mph /  19.3 km/h 77 % 0.00 in /  0 mm 0 W/m2
01:07 52.0 °F /  11.1 °C 45.0 °F /  7.2 °C 30.12 in /  1019.9 hPa WSW 3.0 mph /  4.8 km/h 10.0 mph /  16.1 km/h 77 % 0.00 in /  0 mm 0 W/m2
01:12 52.0 °F /  11.1 °C 45.3 °F /  7.4 °C 30.13 in /  1020.2 hPa West 2.0 mph /  3.2 km/h 8.0 mph /  12.9 km/h 78 % 0.00 in /  0 mm 0 W/m2
01:17 51.8 °F /  11 °C 45.2 °F /  7.3 °C 30.12 in /  1019.9 hPa WSW 3.0 mph /  4.8 km/h 8.0 mph /  12.9 km/h 78 % 0.00 in /  0 mm 0 W/m2
01:22 51.6 °F /  10.9 °C 45.0 °F /  7.2 °C 30.12 in /  1019.9 hPa SW 5.0 mph /  8 km/h 8.0 mph /  12.9 km/h 78 % 0.00 in /  0 mm 0 W/m2
01:27 51.4 °F /  10.8 °C 45.1 °F /  7.3 °C 30.12 in /  1019.9 hPa SW 5.0 mph /  8 km/h 9.0 mph /  14.5 km/h 79 % 0.00 in /  0 mm 0 W/m2
01:32 51.3 °F /  10.7 °C 45.0 °F /  7.2 °C 30.12 in /  1019.9 hPa SSW 5.0 mph /  8 km/h 9.0 mph /  14.5 km/h 79 % 0.00 in /  0 mm 0 W/m2
01:37 51.3 °F /  10.7 °C 45.0 °F /  7.2 °C 30.12 in /  1019.9 hPa SW 4.0 mph /  6.4 km/h 8.0 mph /  12.9 km/h 79 % 0.00 in /  0 mm 0 W/m2
01:42 51.1 °F /  10.6 °C 45.1 °F /  7.3 °C 30.12 in /  1019.9 hPa SW 6.0 mph /  9.7 km/h 9.0 mph /  14.5 km/h 80 % 0.00 in /  0 mm 0 W/m2
01:47 51.1 °F /  10.6 °C 45.1 °F /  7.3 °C 30.12 in /  1019.9 hPa SW 7.0 mph /  11.3 km/h 12.0 mph /  19.3 km/h 80 % 0.00 in /  0 mm 0 W/m2
01:52 50.9 °F /  10.5 °C 45.3 °F /  7.4 °C 30.12 in /  1019.9 hPa SW 7.0 mph /  11.3 km/h 14.0 mph /  22.5 km/h 81 % 0.00 in /  0 mm 0 W/m2
01:57 50.7 °F /  10.4 °C 45.1 °F /  7.3 °C 30.12 in /  1019.9 hPa SW 7.0 mph /  11.3 km/h 14.0 mph /  22.5 km/h 81 % 0.00 in /  0 mm 0 W/m2
02:02 50.7 °F /  10.4 °C 45.1 °F /  7.3 °C 30.12 in /  1019.9 hPa SW 6.0 mph /  9.7 km/h 11.0 mph /  17.7 km/h 81 % 0.00 in /  0 mm 0 W/m2
02:07 50.5 °F /  10.3 °C 44.9 °F /  7.2 °C 30.12 in /  1019.9 hPa SW 4.0 mph /  6.4 km/h 11.0 mph /  17.7 km/h 81 % 0.00 in /  0 mm 0 W/m2
02:12 50.5 °F /  10.3 °C 45.2 °F /  7.3 °C 30.12 in /  1019.9 hPa SW 2.0 mph /  3.2 km/h 7.0 mph /  11.3 km/h 82 % 0.00 in /  0 mm 0 W/m2
02:17 50.4 °F /  10.2 °C 45.1 °F /  7.3 °C 30.12 in /  1019.9 hPa SW 1.0 mph /  1.6 km/h 4.0 mph /  6.4 km/h 82 % 0.00 in /  0 mm 0 W/m2
02:22 50.2 °F /  10.1 °C 44.9 °F /  7.2 °C 30.12 in /  1019.9 hPa SW 1.0 mph /  1.6 km/h 2.0 mph /  3.2 km/h 82 % 0.00 in /  0 mm 0 W/m2
02:27 50.0 °F /  10 °C 45.0 °F /  7.2 °C 30.12 in /  1019.9 hPa South 1.0 mph /  1.6 km/h 5.0 mph /  8 km/h 83 % 0.00 in /  0 mm 0 W/m2
02:32 49.8 °F /  9.9 °C 44.9 °F /  7.2 °C 30.12 in /  1019.9 hPa Calm   5.0 mph /  8 km/h 83 % 0.00 in /  0 mm 0 W/m2
02:37 49.6 °F /  9.8 °C 45.0 °F /  7.2 °C 30.12 in /  1019.9 hPa Calm   2.0 mph /  3.2 km/h 84 % 0.00 in /  0 mm 0 W/m2
02:42 49.5 °F /  9.7 °C 44.8 °F /  7.1 °C 30.12 in /  1019.9 hPa Calm   1.0 mph /  1.6 km/h 84 % 0.00 in /  0 mm 0 W/m2
02:47 49.5 °F /  9.7 °C 45.1 °F /  7.3 °C 30.13 in /  1020.2 hPa Calm   1.0 mph /  1.6 km/h 85 % 0.00 in /  0 mm 0 W/m2
02:52 49.5 °F /  9.7 °C 44.8 °F /  7.1 °C 30.13 in /  1020.2 hPa Calm   1.0 mph /  1.6 km/h 84 % 0.00 in /  0 mm 0 W/m2
02:57 49.3 °F /  9.6 °C 45.0 °F /  7.2 °C 30.13 in /  1020.2 hPa WNW 1.0 mph /  1.6 km/h 7.0 mph /  11.3 km/h 85 % 0.00 in /  0 mm 0 W/m2
03:02 49.5 °F /  9.7 °C 45.4 °F /  7.4 °C 30.14 in /  1020.5 hPa WNW 3.0 mph /  4.8 km/h 7.0 mph /  11.3 km/h 86 % 0.00 in /  0 mm 0 W/m2
03:07 49.6 °F /  9.8 °C 45.6 °F /  7.6 °C 30.14 in /  1020.5 hPa WNW 4.0 mph /  6.4 km/h 7.0 mph /  11.3 km/h 86 % 0.00 in /  0 mm 0 W/m2
03:12 49.6 °F /  9.8 °C 45.6 °F /  7.6 °C 30.14 in /  1020.5 hPa WNW 3.0 mph /  4.8 km/h 7.0 mph /  11.3 km/h 86 % 0.00 in /  0 mm 0 W/m2
03:17 49.8 °F /  9.9 °C 45.8 °F /  7.7 °C 30.14 in /  1020.5 hPa WNW 3.0 mph /  4.8 km/h 6.0 mph /  9.7 km/h 86 % 0.00 in /  0 mm 0 W/m2
03:23 49.8 °F /  9.9 °C 45.8 °F /  7.7 °C 30.14 in /  1020.5 hPa WNW 2.0 mph /  3.2 km/h 6.0 mph /  9.7 km/h 86 % 0.00 in /  0 mm 0 W/m2
03:28 49.8 °F /  9.9 °C 45.8 °F /  7.7 °C 30.14 in /  1020.5 hPa WNW 2.0 mph /  3.2 km/h 6.0 mph /  9.7 km/h 86 % 0.00 in /  0 mm 0 W/m2
03:33 49.8 °F /  9.9 °C 45.8 °F /  7.7 °C 30.14 in /  1020.5 hPa WNW 1.0 mph /  1.6 km/h 6.0 mph /  9.7 km/h 86 % 0.00 in /  0 mm 0 W/m2
03:38 49.8 °F /  9.9 °C 45.8 °F /  7.7 °C 30.14 in /  1020.5 hPa WNW 1.0 mph /  1.6 km/h 5.0 mph /  8 km/h 86 % 0.00 in /  0 mm 0 W/m2
03:43 49.8 °F /  9.9 °C 45.8 °F /  7.7 °C 30.14 in /  1020.5 hPa Calm   5.0 mph /  8 km/h 86 % 0.00 in /  0 mm 0 W/m2
03:48 49.8 °F /  9.9 °C 45.8 °F /  7.7 °C 30.14 in /  1020.5 hPa Calm   2.0 mph /  3.2 km/h 86 % 0.00 in /  0 mm 0 W/m2
03:53 49.8 °F /  9.9 °C 45.8 °F /  7.7 °C 30.14 in /  1020.5 hPa Calm   1.0 mph /  1.6 km/h 86 % 0.00 in /  0 mm 0 W/m2
03:58 49.6 °F /  9.8 °C 45.6 °F /  7.6 °C 30.14 in /  1020.5 hPa Calm   1.0 mph /  1.6 km/h 86 % 0.00 in /  0 mm 0 W/m2
04:03 49.5 °F /  9.7 °C 45.4 °F /  7.4 °C 30.14 in /  1020.5 hPa Calm     86 % 0.00 in /  0 mm 0 W/m2
04:08 49.1 °F /  9.5 °C 45.1 °F /  7.3 °C 30.14 in /  1020.5 hPa Calm     86 % 0.00 in /  0 mm 0 W/m2
04:13 48.9 °F /  9.4 °C 44.9 °F /  7.2 °C 30.15 in /  1020.9 hPa Calm   7.0 mph /  11.3 km/h 86 % 0.00 in /  0 mm 0 W/m2
04:18 48.9 °F /  9.4 °C 45.5 °F /  7.5 °C 30.15 in /  1020.9 hPa WNW 1.0 mph /  1.6 km/h 7.0 mph /  11.3 km/h 88 % 0.00 in /  0 mm 0 W/m2
04:23 48.9 °F /  9.4 °C 45.5 °F /  7.5 °C 30.15 in /  1020.9 hPa WNW 1.0 mph /  1.6 km/h 4.0 mph /  6.4 km/h 88 % 0.00 in /  0 mm 0 W/m2
04:28 48.9 °F /  9.4 °C 45.5 °F /  7.5 °C 30.15 in /  1020.9 hPa WNW 2.0 mph /  3.2 km/h 5.0 mph /  8 km/h 88 % 0.00 in /  0 mm 0 W/m2
04:33 48.9 °F /  9.4 °C 45.5 °F /  7.5 °C 30.15 in /  1020.9 hPa WNW 3.0 mph /  4.8 km/h 6.0 mph /  9.7 km/h 88 % 0.00 in /  0 mm 0 W/m2
04:38 48.9 °F /  9.4 °C 45.5 °F /  7.5 °C 30.15 in /  1020.9 hPa WNW 3.0 mph /  4.8 km/h 6.0 mph /  9.7 km/h 88 % 0.00 in /  0 mm 0 W/m2
04:43 49.1 °F /  9.5 °C 46.0 °F /  7.8 °C 30.15 in /  1020.9 hPa West 3.0 mph /  4.8 km/h 7.0 mph /  11.3 km/h 89 % 0.00 in /  0 mm 0 W/m2
04:48 49.3 °F /  9.6 °C 46.2 °F /  7.9 °C 30.15 in /  1020.9 hPa West 2.0 mph /  3.2 km/h 7.0 mph /  11.3 km/h 89 % 0.00 in /  0 mm 0 W/m2
04:53 49.3 °F /  9.6 °C 45.9 °F /  7.7 °C 30.15 in /  1020.9 hPa Calm   4.0 mph /  6.4 km/h 88 % 0.00 in /  0 mm 0 W/m2
04:58 49.3 °F /  9.6 °C 45.9 °F /  7.7 °C 30.16 in /  1021.2 hPa Calm   2.0 mph /  3.2 km/h 88 % 0.00 in /  0 mm 0 W/m2
05:03 49.1 °F /  9.5 °C 45.7 °F /  7.6 °C 30.15 in /  1020.9 hPa WSW 2.0 mph /  3.2 km/h 7.0 mph /  11.3 km/h 88 % 0.00 in /  0 mm 0 W/m2
05:08 48.9 °F /  9.4 °C 45.5 °F /  7.5 °C 30.15 in /  1020.9 hPa SW 4.0 mph /  6.4 km/h 7.0 mph /  11.3 km/h 88 % 0.00 in /  0 mm 0 W/m2
05:13 48.7 °F /  9.3 °C 45.3 °F /  7.4 °C 30.15 in /  1020.9 hPa WSW 4.0 mph /  6.4 km/h 7.0 mph /  11.3 km/h 88 % 0.00 in /  0 mm 0 W/m2
05:18 48.7 °F /  9.3 °C 45.6 °F /  7.6 °C 30.16 in /  1021.2 hPa West 3.0 mph /  4.8 km/h 6.0 mph /  9.7 km/h 89 % 0.00 in /  0 mm 0 W/m2
05:19 48.7 °F /  9.3 °C 45.6 °F /  7.6 °C 30.16 in /  1021.2 hPa West 3.0 mph /  4.8 km/h 6.0 mph /  9.7 km/h 89 % 0.00 in /  0 mm 0 W/m2
05:24 48.6 °F /  9.2 °C 45.5 °F /  7.5 °C 30.16 in /  1021.2 hPa West 3.0 mph /  4.8 km/h 5.0 mph /  8 km/h 89 % 0.00 in /  0 mm 0 W/m2
05:29 48.6 °F /  9.2 °C 45.5 °F /  7.5 °C 30.16 in /  1021.2 hPa WNW 3.0 mph /  4.8 km/h 5.0 mph /  8 km/h 89 % 0.00 in /  0 mm 0 W/m2
05:34 48.6 °F /  9.2 °C 45.8 °F /  7.7 °C 30.16 in /  1021.2 hPa WNW 4.0 mph /  6.4 km/h 7.0 mph /  11.3 km/h 90 % 0.00 in /  0 mm 0 W/m2
05:39 48.6 °F /  9.2 °C 45.8 °F /  7.7 °C 30.16 in /  1021.2 hPa WNW 4.0 mph /  6.4 km/h 7.0 mph /  11.3 km/h 90 % 0.00 in /  0 mm 0 W/m2
05:44 48.6 °F /  9.2 °C 46.1 °F /  7.8 °C 30.17 in /  1021.6 hPa WNW 4.0 mph /  6.4 km/h 8.0 mph /  12.9 km/h 91 % 0.00 in /  0 mm 0 W/m2
05:49 48.7 °F /  9.3 °C 46.2 °F /  7.9 °C 30.17 in /  1021.6 hPa WNW 3.0 mph /  4.8 km/h 8.0 mph /  12.9 km/h 91 % 0.00 in /  0 mm 0 W/m2
05:54 48.7 °F /  9.3 °C 46.2 °F /  7.9 °C 30.17 in /  1021.6 hPa WNW 2.0 mph /  3.2 km/h 7.0 mph /  11.3 km/h 91 % 0.00 in /  0 mm 0 W/m2
05:59 48.9 °F /  9.4 °C 46.4 °F /  8 °C 30.17 in /  1021.6 hPa WNW 3.0 mph /  4.8 km/h 6.0 mph /  9.7 km/h 91 % 0.00 in /  0 mm 0 W/m2
06:04 49.1 °F /  9.5 °C 46.6 °F /  8.1 °C 30.18 in /  1021.9 hPa WNW 3.0 mph /  4.8 km/h 6.0 mph /  9.7 km/h 91 % 0.00 in /  0 mm 0 W/m2
06:09 49.3 °F /  9.6 °C 46.8 °F /  8.2 °C 30.18 in /  1021.9 hPa WNW 2.0 mph /  3.2 km/h 6.0 mph /  9.7 km/h 91 % 0.00 in /  0 mm 0 W/m2
06:14 49.5 °F /  9.7 °C 46.9 °F /  8.3 °C 30.18 in /  1021.9 hPa WNW 2.0 mph /  3.2 km/h 6.0 mph /  9.7 km/h 91 % 0.00 in /  0 mm 0 W/m2
06:19 49.6 °F /  9.8 °C 47.1 °F /  8.4 °C 30.18 in /  1021.9 hPa WNW 2.0 mph /  3.2 km/h 6.0 mph /  9.7 km/h 91 % 0.00 in /  0 mm 0 W/m2
06:24 49.8 °F /  9.9 °C 47.3 °F /  8.5 °C 30.18 in /  1021.9 hPa WNW 3.0 mph /  4.8 km/h 6.0 mph /  9.7 km/h 91 % 0.00 in /  0 mm 0 W/m2
06:29 49.8 °F /  9.9 °C 47.3 °F /  8.5 °C 30.18 in /  1021.9 hPa West 3.0 mph /  4.8 km/h 6.0 mph /  9.7 km/h 91 % 0.00 in /  0 mm 0 W/m2
06:34 49.8 °F /  9.9 °C 47.0 °F /  8.3 °C 30.18 in /  1021.9 hPa West 1.0 mph /  1.6 km/h 5.0 mph /  8 km/h 90 % 0.00 in /  0 mm 0 W/m2
06:39 49.8 °F /  9.9 °C 47.0 °F /  8.3 °C 30.19 in /  1022.2 hPa West 1.0 mph /  1.6 km/h 4.0 mph /  6.4 km/h 90 % 0.00 in /  0 mm 7 W/m2
06:44 49.8 °F /  9.9 °C 47.0 °F /  8.3 °C 30.19 in /  1022.2 hPa Calm   3.0 mph /  4.8 km/h 90 % 0.00 in /  0 mm 12 W/m2
06:49 49.8 °F /  9.9 °C 47.0 °F /  8.3 °C 30.19 in /  1022.2 hPa West 1.0 mph /  1.6 km/h 7.0 mph /  11.3 km/h 90 % 0.00 in /  0 mm 18 W/m2
06:54 49.8 °F /  9.9 °C 47.0 °F /  8.3 °C 30.19 in /  1022.2 hPa West 2.0 mph /  3.2 km/h 7.0 mph /  11.3 km/h 90 % 0.00 in /  0 mm 19 W/m2
06:59 49.8 °F /  9.9 °C 47.0 °F /  8.3 °C 30.19 in /  1022.2 hPa WNW 1.0 mph /  1.6 km/h 4.0 mph /  6.4 km/h 90 % 0.00 in /  0 mm 30 W/m2
07:04 49.8 °F /  9.9 °C 47.0 °F /  8.3 °C 30.19 in /  1022.2 hPa WNW 2.0 mph /  3.2 km/h 5.0 mph /  8 km/h 90 % 0.00 in /  0 mm 26 W/m2
07:09 49.8 °F /  9.9 °C 47.0 °F /  8.3 °C 30.19 in /  1022.2 hPa WNW 3.0 mph /  4.8 km/h 6.0 mph /  9.7 km/h 90 % 0.00 in /  0 mm 16 W/m2
07:14 49.6 °F /  9.8 °C 46.8 °F /  8.2 °C 30.19 in /  1022.2 hPa West 3.0 mph /  4.8 km/h 6.0 mph /  9.7 km/h 90 % 0.00 in /  0 mm 21 W/m2
07:19 49.6 °F /  9.8 °C 46.8 °F /  8.2 °C 30.19 in /  1022.2 hPa West 3.0 mph /  4.8 km/h 6.0 mph /  9.7 km/h 90 % 0.00 in /  0 mm 23 W/m2
07:24 49.5 °F /  9.7 °C 46.6 °F /  8.1 °C 30.20 in /  1022.6 hPa West 3.0 mph /  4.8 km/h 5.0 mph /  8 km/h 90 % 0.00 in /  0 mm 62 W/m2
07:29 49.5 °F /  9.7 °C 46.6 °F /  8.1 °C 30.20 in /  1022.6 hPa West 2.0 mph /  3.2 km/h 5.0 mph /  8 km/h 90 % 0.00 in /  0 mm 62 W/m2
07:34 49.6 °F /  9.8 °C 47.1 °F /  8.4 °C 30.20 in /  1022.6 hPa West 3.0 mph /  4.8 km/h 8.0 mph /  12.9 km/h 91 % 0.00 in /  0 mm 49 W/m2
07:40 49.8 °F /  9.9 °C 47.3 °F /  8.5 °C 30.20 in /  1022.6 hPa West 4.0 mph /  6.4 km/h 8.0 mph /  12.9 km/h 91 % 0.00 in /  0 mm 86 W/m2
07:45 50.2 °F /  10.1 °C 47.7 °F /  8.7 °C 30.21 in /  1022.9 hPa West 3.0 mph /  4.8 km/h 8.0 mph /  12.9 km/h 91 % 0.00 in /  0 mm 69 W/m2
07:49 50.4 °F /  10.2 °C 47.8 °F /  8.8 °C 30.20 in /  1022.6 hPa West 3.0 mph /  4.8 km/h 7.0 mph /  11.3 km/h 91 % 0.00 in /  0 mm 63 W/m2
07:55 50.7 °F /  10.4 °C 48.2 °F /  9 °C 30.21 in /  1022.9 hPa West 5.0 mph /  8 km/h 13.0 mph /  20.9 km/h 91 % 0.00 in /  0 mm 67 W/m2
08:00 50.9 °F /  10.5 °C 48.4 °F /  9.1 °C 30.21 in /  1022.9 hPa West 7.0 mph /  11.3 km/h 14.0 mph /  22.5 km/h 91 % 0.00 in /  0 mm 60 W/m2
08:05 51.3 °F /  10.7 °C 48.7 °F /  9.3 °C 30.21 in /  1022.9 hPa WNW 7.0 mph /  11.3 km/h 16.0 mph /  25.7 km/h 91 % 0.00 in /  0 mm 105 W/m2
08:10 51.4 °F /  10.8 °C 48.6 °F /  9.2 °C 30.21 in /  1022.9 hPa West 6.0 mph /  9.7 km/h 16.0 mph /  25.7 km/h 90 % 0.00 in /  0 mm 211 W/m2
08:15 52.0 °F /  11.1 °C 49.1 °F /  9.5 °C 30.21 in /  1022.9 hPa West 5.0 mph /  8 km/h 11.0 mph /  17.7 km/h 90 % 0.00 in /  0 mm 237 W/m2
08:20 52.5 °F /  11.4 °C 49.4 °F /  9.7 °C 30.22 in /  1023.2 hPa West 4.0 mph /  6.4 km/h 7.0 mph /  11.3 km/h 89 % 0.00 in /  0 mm 102 W/m2
08:25 52.9 °F /  11.6 °C 49.4 °F /  9.7 °C 30.22 in /  1023.2 hPa WNW 3.0 mph /  4.8 km/h 7.0 mph /  11.3 km/h 88 % 0.00 in /  0 mm 167 W/m2
08:30 53.2 °F /  11.8 °C 49.8 °F /  9.9 °C 30.22 in /  1023.2 hPa NW 3.0 mph /  4.8 km/h 7.0 mph /  11.3 km/h 88 % 0.00 in /  0 mm 237 W/m2
08:35 53.4 °F /  11.9 °C 49.6 °F /  9.8 °C 30.22 in /  1023.2 hPa NW 4.0 mph /  6.4 km/h 9.0 mph /  14.5 km/h 87 % 0.00 in /  0 mm 83 W/m2
08:40 53.4 °F /  11.9 °C 49.3 °F /  9.6 °C 30.23 in /  1023.6 hPa WNW 5.0 mph /  8 km/h 11.0 mph /  17.7 km/h 86 % 0.00 in /  0 mm 113 W/m2
08:45 53.4 °F /  11.9 °C 49.3 °F /  9.6 °C 30.23 in /  1023.6 hPa WNW 6.0 mph /  9.7 km/h 11.0 mph /  17.7 km/h 86 % 0.00 in /  0 mm 121 W/m2
08:50 53.4 °F /  11.9 °C 49.3 °F /  9.6 °C 30.23 in /  1023.6 hPa NW 5.0 mph /  8 km/h 11.0 mph /  17.7 km/h 86 % 0.00 in /  0 mm 69 W/m2
08:55 53.4 °F /  11.9 °C 49.3 °F /  9.6 °C 30.23 in /  1023.6 hPa NW 4.0 mph /  6.4 km/h 9.0 mph /  14.5 km/h 86 % 0.00 in /  0 mm 113 W/m2
09:00 53.4 °F /  11.9 °C 49.3 °F /  9.6 °C 30.23 in /  1023.6 hPa NW 5.0 mph /  8 km/h 11.0 mph /  17.7 km/h 86 % 0.00 in /  0 mm 149 W/m2
09:05 53.4 °F /  11.9 °C 49.3 °F /  9.6 °C 30.24 in /  1023.9 hPa NW 5.0 mph /  8 km/h 11.0 mph /  17.7 km/h 86 % 0.00 in /  0 mm 153 W/m2
09:10 53.4 °F /  11.9 °C 49.3 °F /  9.6 °C 30.24 in /  1023.9 hPa NW 5.0 mph /  8 km/h 12.0 mph /  19.3 km/h 86 % 0.00 in /  0 mm 125 W/m2
09:15 53.6 °F /  12 °C 49.5 °F /  9.7 °C 30.24 in /  1023.9 hPa NW 5.0 mph /  8 km/h 12.0 mph /  19.3 km/h 86 % 0.00 in /  0 mm 116 W/m2
09:20 53.6 °F /  12 °C 49.5 °F /  9.7 °C 30.24 in /  1023.9 hPa NW 3.0 mph /  4.8 km/h 9.0 mph /  14.5 km/h 86 % 0.00 in /  0 mm 200 W/m2
09:25 53.8 °F /  12.1 °C 49.7 °F /  9.8 °C 30.25 in /  1024.3 hPa NNW 1.0 mph /  1.6 km/h 8.0 mph /  12.9 km/h 86 % 0.00 in /  0 mm 123 W/m2
09:30 54.0 °F /  12.2 °C 49.9 °F /  9.9 °C 30.25 in /  1024.3 hPa NNW 3.0 mph /  4.8 km/h 10.0 mph /  16.1 km/h 86 % 0.00 in /  0 mm 109 W/m2
09:35 54.0 °F /  12.2 °C 49.9 °F /  9.9 °C 30.25 in /  1024.3 hPa NW 4.0 mph /  6.4 km/h 10.0 mph /  16.1 km/h 86 % 0.00 in /  0 mm 100 W/m2
09:40 54.1 °F /  12.3 °C 50.0 °F /  10 °C 30.26 in /  1024.6 hPa NW 3.0 mph /  4.8 km/h 8.0 mph /  12.9 km/h 86 % 0.00 in /  0 mm 95 W/m2
09:45 54.1 °F /  12.3 °C 49.7 °F /  9.8 °C 30.26 in /  1024.6 hPa NW 3.0 mph /  4.8 km/h 10.0 mph /  16.1 km/h 85 % 0.00 in /  0 mm 62 W/m2
09:50 54.1 °F /  12.3 °C 49.7 °F /  9.8 °C 30.26 in /  1024.6 hPa NW 3.0 mph /  4.8 km/h 7.0 mph /  11.3 km/h 85 % 0.00 in /  0 mm 88 W/m2
09:55 54.0 °F /  12.2 °C 49.6 °F /  9.8 °C 30.26 in /  1024.6 hPa NW 4.0 mph /  6.4 km/h 8.0 mph /  12.9 km/h 85 % 0.00 in /  0 mm 63 W/m2
10:00 54.0 °F /  12.2 °C 49.6 °F /  9.8 °C 30.26 in /  1024.6 hPa NW 4.0 mph /  6.4 km/h 8.0 mph /  12.9 km/h 85 % 0.00 in /  0 mm 54 W/m2
10:06 54.0 °F /  12.2 °C 49.6 °F /  9.8 °C 30.27 in /  1024.9 hPa NW 4.0 mph /  6.4 km/h 8.0 mph /  12.9 km/h 85 % 0.00 in /  0 mm 58 W/m2
10:11 54.0 °F /  12.2 °C 49.6 °F /  9.8 °C 30.27 in /  1024.9 hPa NW 4.0 mph /  6.4 km/h 9.0 mph /  14.5 km/h 85 % 0.00 in /  0 mm 88 W/m2
10:16 54.0 °F /  12.2 °C 49.6 °F /  9.8 °C 30.27 in /  1024.9 hPa NW 5.0 mph /  8 km/h 9.0 mph /  14.5 km/h 85 % 0.00 in /  0 mm 56 W/m2
10:21 54.0 °F /  12.2 °C 49.6 °F /  9.8 °C 30.27 in /  1024.9 hPa NW 5.0 mph /  8 km/h 11.0 mph /  17.7 km/h 85 % 0.00 in /  0 mm 67 W/m2
10:26 53.8 °F /  12.1 °C 49.4 °F /  9.7 °C 30.27 in /  1024.9 hPa NW 5.0 mph /  8 km/h 11.0 mph /  17.7 km/h 85 % 0.00 in /  0 mm 60 W/m2
10:31 53.8 °F /  12.1 °C 49.7 °F /  9.8 °C 30.28 in /  1025.3 hPa NW 5.0 mph /  8 km/h 10.0 mph /  16.1 km/h 86 % 0.00 in /  0 mm 47 W/m2
10:36 53.8 °F /  12.1 °C 49.4 °F /  9.7 °C 30.28 in /  1025.3 hPa NNW 4.0 mph /  6.4 km/h 8.0 mph /  12.9 km/h 85 % 0.00 in /  0 mm 47 W/m2
10:41 53.6 °F /  12 °C 49.2 °F /  9.6 °C 30.28 in /  1025.3 hPa NNW 3.0 mph /  4.8 km/h 8.0 mph /  12.9 km/h 85 % 0.00 in /  0 mm 54 W/m2
10:46 53.4 °F /  11.9 °C 49.3 °F /  9.6 °C 30.28 in /  1025.3 hPa NNW 3.0 mph /  4.8 km/h 8.0 mph /  12.9 km/h 86 % 0.00 in /  0 mm 58 W/m2
10:51 53.4 °F /  11.9 °C 49.3 °F /  9.6 °C 30.28 in /  1025.3 hPa NNW 3.0 mph /  4.8 km/h 8.0 mph /  12.9 km/h 86 % 0.00 in /  0 mm 58 W/m2
10:56 53.4 °F /  11.9 °C 49.3 °F /  9.6 °C 30.29 in /  1025.6 hPa NNW 3.0 mph /  4.8 km/h 9.0 mph /  14.5 km/h 86 % 0.00 in /  0 mm 60 W/m2
11:01 53.4 °F /  11.9 °C 49.3 °F /  9.6 °C 30.29 in /  1025.6 hPa NW 5.0 mph /  8 km/h 9.0 mph /  14.5 km/h 86 % 0.00 in /  0 mm 62 W/m2
11:06 53.4 °F /  11.9 °C 49.3 °F /  9.6 °C 30.29 in /  1025.6 hPa NW 5.0 mph /  8 km/h 9.0 mph /  14.5 km/h 86 % 0.00 in /  0 mm 63 W/m2
11:11 53.4 °F /  11.9 °C 49.3 °F /  9.6 °C 30.29 in /  1025.6 hPa NW 5.0 mph /  8 km/h 10.0 mph /  16.1 km/h 86 % 0.00 in /  0 mm 69 W/m2
11:16 53.4 °F /  11.9 °C 49.3 °F /  9.6 °C 30.29 in /  1025.6 hPa WNW 6.0 mph /  9.7 km/h 10.0 mph /  16.1 km/h 86 % 0.00 in /  0 mm 67 W/m2
11:21 53.4 °F /  11.9 °C 49.3 °F /  9.6 °C 30.29 in /  1025.6 hPa NW 6.0 mph /  9.7 km/h 13.0 mph /  20.9 km/h 86 % 0.00 in /  0 mm 69 W/m2
11:26 53.2 °F /  11.8 °C 49.2 °F /  9.6 °C 30.30 in /  1026 hPa NW 6.0 mph /  9.7 km/h 13.0 mph /  20.9 km/h 86 % 0.00 in /  0 mm 67 W/m2
11:31 53.2 °F /  11.8 °C 49.2 °F /  9.6 °C 30.30 in /  1026 hPa NW 6.0 mph /  9.7 km/h 11.0 mph /  17.7 km/h 86 % 0.00 in /  0 mm 63 W/m2
11:36 53.1 °F /  11.7 °C 49.3 °F /  9.6 °C 30.30 in /  1026 hPa NW 6.0 mph /  9.7 km/h 12.0 mph /  19.3 km/h 87 % 0.00 in /  0 mm 76 W/m2
11:41 53.1 °F /  11.7 °C 49.3 °F /  9.6 °C 30.30 in /  1026 hPa NW 6.0 mph /  9.7 km/h 12.0 mph /  19.3 km/h 87 % 0.00 in /  0 mm 74 W/m2
11:46 52.9 °F /  11.6 °C 49.1 °F /  9.5 °C 30.30 in /  1026 hPa WNW 6.0 mph /  9.7 km/h 12.0 mph /  19.3 km/h 87 % 0.00 in /  0 mm 83 W/m2
11:51 53.1 °F /  11.7 °C 49.3 °F /  9.6 °C 30.30 in /  1026 hPa WNW 5.0 mph /  8 km/h 10.0 mph /  16.1 km/h 87 % 0.00 in /  0 mm 72 W/m2
11:56 53.1 °F /  11.7 °C 49.3 °F /  9.6 °C 30.30 in /  1026 hPa WNW 5.0 mph /  8 km/h 10.0 mph /  16.1 km/h 87 % 0.00 in /  0 mm 65 W/m2
12:01 53.1 °F /  11.7 °C 49.3 °F /  9.6 °C 30.31 in /  1026.3 hPa WNW 6.0 mph /  9.7 km/h 13.0 mph /  20.9 km/h 87 % 0.00 in /  0 mm 49 W/m2
12:06 52.9 °F /  11.6 °C 49.1 °F /  9.5 °C 30.31 in /  1026.3 hPa WNW 7.0 mph /  11.3 km/h 13.0 mph /  20.9 km/h 87 % 0.00 in /  0 mm 40 W/m2
12:11 52.7 °F /  11.5 °C 48.9 °F /  9.4 °C 30.31 in /  1026.3 hPa WNW 8.0 mph /  12.9 km/h 14.0 mph /  22.5 km/h 87 % 0.00 in /  0 mm 37 W/m2
12:16 52.3 °F /  11.3 °C 48.6 °F /  9.2 °C 30.32 in /  1026.6 hPa WNW 9.0 mph /  14.5 km/h 14.0 mph /  22.5 km/h 87 % 0.00 in /  0 mm 40 W/m2
12:21 52.2 °F /  11.2 °C 48.7 °F /  9.3 °C 30.32 in /  1026.6 hPa WNW 9.0 mph /  14.5 km/h 16.0 mph /  25.7 km/h 88 % 0.00 in /  0 mm 47 W/m2
12:26 52.0 °F /  11.1 °C 48.5 °F /  9.2 °C 30.32 in /  1026.6 hPa WNW 9.0 mph /  14.5 km/h 16.0 mph /  25.7 km/h 88 % 0.00 in /  0 mm 54 W/m2
12:31 51.6 °F /  10.9 °C 48.2 °F /  9 °C 30.32 in /  1026.6 hPa WNW 9.0 mph /  14.5 km/h 16.0 mph /  25.7 km/h 88 % 0.00 in /  0 mm 58 W/m2
12:32 51.6 °F /  10.9 °C 48.2 °F /  9 °C 30.32 in /  1026.6 hPa WNW 9.0 mph /  14.5 km/h 16.0 mph /  25.7 km/h 88 % 0.00 in /  0 mm 58 W/m2
12:37 51.4 °F /  10.8 °C 48.0 °F /  8.9 °C 30.32 in /  1026.6 hPa WNW 8.0 mph /  12.9 km/h 15.0 mph /  24.1 km/h 88 % 0.00 in /  0 mm 72 W/m2
12:42 51.4 °F /  10.8 °C 48.0 °F /  8.9 °C 30.32 in /  1026.6 hPa WNW 7.0 mph /  11.3 km/h 15.0 mph /  24.1 km/h 88 % 0.00 in /  0 mm 74 W/m2
12:47 51.6 °F /  10.9 °C 48.2 °F /  9 °C 30.33 in /  1027 hPa WNW 7.0 mph /  11.3 km/h 13.0 mph /  20.9 km/h 88 % 0.00 in /  0 mm 74 W/m2
12:52 51.6 °F /  10.9 °C 48.2 °F /  9 °C 30.33 in /  1027 hPa WNW 7.0 mph /  11.3 km/h 13.0 mph /  20.9 km/h 88 % 0.00 in /  0 mm 77 W/m2
12:57 51.6 °F /  10.9 °C 48.2 °F /  9 °C 30.33 in /  1027 hPa WNW 8.0 mph /  12.9 km/h 14.0 mph /  22.5 km/h 88 % 0.00 in /  0 mm 77 W/m2
13:02 51.6 °F /  10.9 °C 48.2 °F /  9 °C 30.33 in /  1027 hPa WNW 7.0 mph /  11.3 km/h 14.0 mph /  22.5 km/h 88 % 0.00 in /  0 mm 76 W/m2
13:07 51.8 °F /  11 °C 48.4 °F /  9.1 °C 30.33 in /  1027 hPa WNW 6.0 mph /  9.7 km/h 12.0 mph /  19.3 km/h 88 % 0.00 in /  0 mm 67 W/m2
13:12 51.8 °F /  11 °C 48.1 °F /  8.9 °C 30.33 in /  1027 hPa WNW 6.0 mph /  9.7 km/h 11.0 mph /  17.7 km/h 87 % 0.00 in /  0 mm 67 W/m2
13:14 51.8 °F /  11 °C 48.1 °F /  8.9 °C 30.33 in /  1027 hPa WNW 6.0 mph /  9.7 km/h 11.0 mph /  17.7 km/h 87 % 0.00 in /  0 mm 65 W/m2
13:19 52.0 °F /  11.1 °C 48.2 °F /  9 °C 30.33 in /  1027 hPa WNW 7.0 mph /  11.3 km/h 11.0 mph /  17.7 km/h 87 % 0.00 in /  0 mm 76 W/m2
13:24 51.8 °F /  11 °C 48.1 °F /  8.9 °C 30.33 in /  1027 hPa WNW 7.0 mph /  11.3 km/h 14.0 mph /  22.5 km/h 87 % 0.00 in /  0 mm 79 W/m2
13:29 51.8 °F /  11 °C 48.4 °F /  9.1 °C 30.33 in /  1027 hPa WNW 7.0 mph /  11.3 km/h 14.0 mph /  22.5 km/h 88 % 0.00 in /  0 mm 88 W/m2
13:34 51.8 °F /  11 °C 48.4 °F /  9.1 °C 30.33 in /  1027 hPa WNW 5.0 mph /  8 km/h 11.0 mph /  17.7 km/h 88 % 0.00 in /  0 mm 116 W/m2
13:39 51.8 °F /  11 °C 48.4 °F /  9.1 °C 30.33 in /  1027 hPa WNW 5.0 mph /  8 km/h 8.0 mph /  12.9 km/h 88 % 0.00 in /  0 mm 116 W/m2
13:44 52.0 °F /  11.1 °C 48.2 °F /  9 °C 30.33 in /  1027 hPa WNW 6.0 mph /  9.7 km/h 10.0 mph /  16.1 km/h 87 % 0.00 in /  0 mm 137 W/m2
13:49 52.0 °F /  11.1 °C 48.2 °F /  9 °C 30.34 in /  1027.3 hPa WNW 6.0 mph /  9.7 km/h 10.0 mph /  16.1 km/h 87 % 0.00 in /  0 mm 207 W/m2
13:54 52.3 °F /  11.3 °C 48.3 °F /  9.1 °C 30.34 in /  1027.3 hPa WNW 6.0 mph /  9.7 km/h 10.0 mph /  16.1 km/h 86 % 0.00 in /  0 mm 267 W/m2
13:59 52.9 °F /  11.6 °C 48.5 °F /  9.2 °C 30.34 in /  1027.3 hPa WNW 6.0 mph /  9.7 km/h 10.0 mph /  16.1 km/h 85 % 0.00 in /  0 mm 137 W/m2
14:04 53.1 °F /  11.7 °C 47.7 °F /  8.7 °C 30.34 in /  1027.3 hPa WNW 6.0 mph /  9.7 km/h 11.0 mph /  17.7 km/h 82 % 0.00 in /  0 mm 130 W/m2
14:09 53.2 °F /  11.8 °C 47.6 °F /  8.7 °C 30.34 in /  1027.3 hPa NW 7.0 mph /  11.3 km/h 12.0 mph /  19.3 km/h 81 % 0.00 in /  0 mm 151 W/m2
14:14 53.2 °F /  11.8 °C 47.6 °F /  8.7 °C 30.34 in /  1027.3 hPa NW 7.0 mph /  11.3 km/h 12.0 mph /  19.3 km/h 81 % 0.00 in /  0 mm 130 W/m2
14:19 53.4 °F /  11.9 °C 48.1 °F /  8.9 °C 30.34 in /  1027.3 hPa NW 6.0 mph /  9.7 km/h 11.0 mph /  17.7 km/h 82 % 0.00 in /  0 mm 139 W/m2
14:24 53.4 °F /  11.9 °C 47.7 °F /  8.7 °C 30.34 in /  1027.3 hPa WNW 6.0 mph /  9.7 km/h 10.0 mph /  16.1 km/h 81 % 0.00 in /  0 mm 172 W/m2
14:29 53.4 °F /  11.9 °C 47.7 °F /  8.7 °C 30.34 in /  1027.3 hPa WNW 6.0 mph /  9.7 km/h 10.0 mph /  16.1 km/h 81 % 0.00 in /  0 mm 206 W/m2
14:34 53.4 °F /  11.9 °C 47.7 °F /  8.7 °C 30.34 in /  1027.3 hPa WNW 5.0 mph /  8 km/h 9.0 mph /  14.5 km/h 81 % 0.00 in /  0 mm 260 W/m2
14:39 53.8 °F /  12.1 °C 47.8 °F /  8.8 °C 30.34 in /  1027.3 hPa WNW 5.0 mph /  8 km/h 12.0 mph /  19.3 km/h 80 % 0.00 in /  0 mm 264 W/m2
14:44 54.1 °F /  12.3 °C 47.4 °F /  8.6 °C 30.34 in /  1027.3 hPa WNW 6.0 mph /  9.7 km/h 12.0 mph /  19.3 km/h 78 % 0.00 in /  0 mm 176 W/m2
14:49 54.3 °F /  12.4 °C 47.3 °F /  8.5 °C 30.34 in /  1027.3 hPa NW 6.0 mph /  9.7 km/h 11.0 mph /  17.7 km/h 77 % 0.00 in /  0 mm 207 W/m2
14:54 54.3 °F /  12.4 °C 46.6 °F /  8.1 °C 30.34 in /  1027.3 hPa NW 7.0 mph /  11.3 km/h 13.0 mph /  20.9 km/h 75 % 0.00 in /  0 mm 274 W/m2
14:59 54.9 °F /  12.7 °C 47.4 °F /  8.6 °C 30.34 in /  1027.3 hPa WNW 6.0 mph /  9.7 km/h 13.0 mph /  20.9 km/h 76 % 0.00 in /  0 mm 330 W/m2
15:04 55.2 °F /  12.9 °C 46.7 °F /  8.2 °C 30.34 in /  1027.3 hPa WNW 6.0 mph /  9.7 km/h 12.0 mph /  19.3 km/h 73 % 0.00 in /  0 mm 323 W/m2
15:10 55.6 °F /  13.1 °C 46.3 °F /  7.9 °C 30.34 in /  1027.3 hPa WNW 6.0 mph /  9.7 km/h 12.0 mph /  19.3 km/h 71 % 0.00 in /  0 mm 301 W/m2
15:15 55.9 °F /  13.3 °C 45.9 °F /  7.7 °C 30.33 in /  1027 hPa WNW 7.0 mph /  11.3 km/h 12.0 mph /  19.3 km/h 69 % 0.00 in /  0 mm 304 W/m2
15:20 56.1 °F /  13.4 °C 44.9 °F /  7.2 °C 30.33 in /  1027 hPa WNW 8.0 mph /  12.9 km/h 14.0 mph /  22.5 km/h 66 % 0.00 in /  0 mm 454 W/m2
15:25 56.7 °F /  13.7 °C 45.4 °F /  7.4 °C 30.33 in /  1027 hPa WNW 8.0 mph /  12.9 km/h 15.0 mph /  24.1 km/h 66 % 0.00 in /  0 mm 798 W/m2
15:30 57.0 °F /  13.9 °C 45.0 °F /  7.2 °C 30.33 in /  1027 hPa WNW 9.0 mph /  14.5 km/h 15.0 mph /  24.1 km/h 64 % 0.00 in /  0 mm 301 W/m2
15:35 57.4 °F /  14.1 °C 44.9 °F /  7.2 °C 30.33 in /  1027 hPa WNW 8.0 mph /  12.9 km/h 15.0 mph /  24.1 km/h 63 % 0.00 in /  0 mm 538 W/m2
15:40 57.7 °F /  14.3 °C 44.8 °F /  7.1 °C 30.33 in /  1027 hPa NW 8.0 mph /  12.9 km/h 15.0 mph /  24.1 km/h 62 % 0.00 in /  0 mm 649 W/m2
15:45 58.3 °F /  14.6 °C 45.3 °F /  7.4 °C 30.33 in /  1027 hPa NW 8.0 mph /  12.9 km/h 15.0 mph /  24.1 km/h 62 % 0.00 in /  0 mm 601 W/m2
15:50 58.6 °F /  14.8 °C 44.3 °F /  6.8 °C 30.33 in /  1027 hPa WNW 8.0 mph /  12.9 km/h 15.0 mph /  24.1 km/h 59 % 0.00 in /  0 mm 564 W/m2
15:55 58.8 °F /  14.9 °C 44.5 °F /  6.9 °C 30.33 in /  1027 hPa WNW 8.0 mph /  12.9 km/h 15.0 mph /  24.1 km/h 59 % 0.00 in /  0 mm 589 W/m2
16:00 58.8 °F /  14.9 °C 44.1 °F /  6.7 °C 30.33 in /  1027 hPa WNW 8.0 mph /  12.9 km/h 14.0 mph /  22.5 km/h 58 % 0.00 in /  0 mm 568 W/m2
16:05 58.6 °F /  14.8 °C 44.3 °F /  6.8 °C 30.33 in /  1027 hPa West 9.0 mph /  14.5 km/h 16.0 mph /  25.7 km/h 59 % 0.00 in /  0 mm 541 W/m2
16:10 58.6 °F /  14.8 °C 43.9 °F /  6.6 °C 30.33 in /  1027 hPa WNW 10.0 mph /  16.1 km/h 18.0 mph /  29 km/h 58 % 0.00 in /  0 mm 534 W/m2
16:15 58.6 °F /  14.8 °C 43.9 °F /  6.6 °C 30.33 in /  1027 hPa WNW 9.0 mph /  14.5 km/h 18.0 mph /  29 km/h 58 % 0.00 in /  0 mm 534 W/m2
16:20 58.6 °F /  14.8 °C 43.9 °F /  6.6 °C 30.33 in /  1027 hPa WNW 9.0 mph /  14.5 km/h 16.0 mph /  25.7 km/h 58 % 0.00 in /  0 mm 508 W/m2
16:25 58.8 °F /  14.9 °C 43.6 °F /  6.4 °C 30.33 in /  1027 hPa WNW 7.0 mph /  11.3 km/h 16.0 mph /  25.7 km/h 57 % 0.00 in /  0 mm 482 W/m2
16:30 58.8 °F /  14.9 °C 44.1 °F /  6.7 °C 30.33 in /  1027 hPa WNW 8.0 mph /  12.9 km/h 15.0 mph /  24.1 km/h 58 % 0.00 in /  0 mm 471 W/m2
16:35 59.0 °F /  15 °C 43.3 °F /  6.3 °C 30.34 in /  1027.3 hPa WNW 9.0 mph /  14.5 km/h 19.0 mph /  30.6 km/h 56 % 0.00 in /  0 mm 446 W/m2
16:40 58.8 °F /  14.9 °C 43.1 °F /  6.2 °C 30.34 in /  1027.3 hPa NW 8.0 mph /  12.9 km/h 19.0 mph /  30.6 km/h 56 % 0.00 in /  0 mm 408 W/m2
16:45 58.8 °F /  14.9 °C 43.1 °F /  6.2 °C 30.34 in /  1027.3 hPa WNW 6.0 mph /  9.7 km/h 14.0 mph /  22.5 km/h 56 % 0.00 in /  0 mm 411 W/m2
16:50 58.8 °F /  14.9 °C 43.1 °F /  6.2 °C 30.34 in /  1027.3 hPa WNW 5.0 mph /  8 km/h 10.0 mph /  16.1 km/h 56 % 0.00 in /  0 mm 454 W/m2
16:51 58.6 °F /  14.8 °C 43.4 °F /  6.3 °C 30.34 in /  1027.3 hPa WNW 6.0 mph /  9.7 km/h 14.0 mph /  22.5 km/h 57 % 0.00 in /  0 mm 454 W/m2
16:55 58.3 °F /  14.6 °C 43.1 °F /  6.2 °C 30.34 in /  1027.3 hPa WNW 8.0 mph /  12.9 km/h 21.0 mph /  33.8 km/h 57 % 0.00 in /  0 mm 120 W/m2
17:01 57.6 °F /  14.2 °C 42.4 °F /  5.8 °C 30.34 in /  1027.3 hPa WNW 9.0 mph /  14.5 km/h 21.0 mph /  33.8 km/h 57 % 0.00 in /  0 mm 98 W/m2
17:06 57.2 °F /  14 °C 43.0 °F /  6.1 °C 30.34 in /  1027.3 hPa NW 6.0 mph /  9.7 km/h 14.0 mph /  22.5 km/h 59 % 0.00 in /  0 mm 88 W/m2
17:11 56.8 °F /  13.8 °C 43.1 °F /  6.2 °C 30.34 in /  1027.3 hPa NW 5.0 mph /  8 km/h 9.0 mph /  14.5 km/h 60 % 0.00 in /  0 mm 102 W/m2
17:16 56.5 °F /  13.6 °C 43.2 °F /  6.2 °C 30.34 in /  1027.3 hPa NW 6.0 mph /  9.7 km/h 11.0 mph /  17.7 km/h 61 % 0.00 in /  0 mm 118 W/m2
17:21 56.5 °F /  13.6 °C 43.2 °F /  6.2 °C 30.34 in /  1027.3 hPa WNW 7.0 mph /  11.3 km/h 12.0 mph /  19.3 km/h 61 % 0.00 in /  0 mm 100 W/m2
17:26 56.3 °F /  13.5 °C 43.4 °F /  6.3 °C 30.35 in /  1027.7 hPa WNW 6.0 mph /  9.7 km/h 12.0 mph /  19.3 km/h 62 % 0.00 in /  0 mm 111 W/m2
17:31 56.7 °F /  13.7 °C 43.8 °F /  6.6 °C 30.35 in /  1027.7 hPa WNW 8.0 mph /  12.9 km/h 14.0 mph /  22.5 km/h 62 % 0.00 in /  0 mm 285 W/m2
17:36 56.8 °F /  13.8 °C 44.0 °F /  6.7 °C 30.35 in /  1027.7 hPa WNW 9.0 mph /  14.5 km/h 15.0 mph /  24.1 km/h 62 % 0.00 in /  0 mm 281 W/m2
17:41 56.7 °F /  13.7 °C 43.8 °F /  6.6 °C 30.35 in /  1027.7 hPa WNW 10.0 mph /  16.1 km/h 16.0 mph /  25.7 km/h 62 % 0.00 in /  0 mm 253 W/m2
17:46 56.7 °F /  13.7 °C 44.2 °F /  6.8 °C 30.35 in /  1027.7 hPa WNW 11.0 mph /  17.7 km/h 16.0 mph /  25.7 km/h 63 % 0.00 in /  0 mm 246 W/m2
17:51 56.5 °F /  13.6 °C 44.0 °F /  6.7 °C 30.35 in /  1027.7 hPa WNW 10.0 mph /  16.1 km/h 16.0 mph /  25.7 km/h 63 % 0.00 in /  0 mm 211 W/m2
17:52 56.5 °F /  13.6 °C 44.4 °F /  6.9 °C 30.35 in /  1027.7 hPa WNW 10.0 mph /  16.1 km/h 16.0 mph /  25.7 km/h 64 % 0.00 in /  0 mm 202 W/m2
17:57 56.1 °F /  13.4 °C 44.1 °F /  6.7 °C 30.35 in /  1027.7 hPa WNW 10.0 mph /  16.1 km/h 18.0 mph /  29 km/h 64 % 0.00 in /  0 mm 176 W/m2
18:02 55.8 °F /  13.2 °C 43.8 °F /  6.6 °C 30.36 in /  1028 hPa WNW 10.0 mph /  16.1 km/h 18.0 mph /  29 km/h 64 % 0.00 in /  0 mm 172 W/m2
18:07 55.6 °F /  13.1 °C 44.4 °F /  6.9 °C 30.36 in /  1028 hPa WNW 9.0 mph /  14.5 km/h 18.0 mph /  29 km/h 66 % 0.00 in /  0 mm 163 W/m2
18:12 55.2 °F /  12.9 °C 44.1 °F /  6.7 °C 30.36 in /  1028 hPa WNW 9.0 mph /  14.5 km/h 18.0 mph /  29 km/h 66 % 0.00 in /  0 mm 149 W/m2
18:17 54.9 °F /  12.7 °C 43.7 °F /  6.5 °C 30.36 in /  1028 hPa WNW 11.0 mph /  17.7 km/h 18.0 mph /  29 km/h 66 % 0.00 in /  0 mm 153 W/m2
18:22 54.7 °F /  12.6 °C 43.9 °F /  6.6 °C 30.36 in /  1028 hPa WNW 11.0 mph /  17.7 km/h 20.0 mph /  32.2 km/h 67 % 0.00 in /  0 mm 134 W/m2
18:27 54.3 °F /  12.4 °C 43.6 °F /  6.4 °C 30.36 in /  1028 hPa WNW 9.0 mph /  14.5 km/h 20.0 mph /  32.2 km/h 67 % 0.00 in /  0 mm 116 W/m2
18:32 54.1 °F /  12.3 °C 43.4 °F /  6.3 °C 30.36 in /  1028 hPa WNW 9.0 mph /  14.5 km/h 19.0 mph /  30.6 km/h 67 % 0.00 in /  0 mm 88 W/m2
18:37 53.8 °F /  12.1 °C 43.5 °F /  6.4 °C 30.36 in /  1028 hPa WNW 11.0 mph /  17.7 km/h 19.0 mph /  30.6 km/h 68 % 0.00 in /  0 mm 97 W/m2
18:42 53.4 °F /  11.9 °C 43.1 °F /  6.2 °C 30.36 in /  1028 hPa WNW 10.0 mph /  16.1 km/h 18.0 mph /  29 km/h 68 % 0.00 in /  0 mm 77 W/m2
18:47 53.2 °F /  11.8 °C 43.3 °F /  6.3 °C 30.37 in /  1028.3 hPa WNW 9.0 mph /  14.5 km/h 16.0 mph /  25.7 km/h 69 % 0.00 in /  0 mm 65 W/m2
18:52 52.9 °F /  11.6 °C 43.4 °F /  6.3 °C 30.37 in /  1028.3 hPa WNW 8.0 mph /  12.9 km/h 14.0 mph /  22.5 km/h 70 % 0.00 in /  0 mm 60 W/m2
18:57 52.5 °F /  11.4 °C 43.0 °F /  6.1 °C 30.37 in /  1028.3 hPa WNW 8.0 mph /  12.9 km/h 16.0 mph /  25.7 km/h 70 % 0.00 in /  0 mm 67 W/m2
19:02 52.3 °F /  11.3 °C 42.8 °F /  6 °C 30.37 in /  1028.3 hPa WNW 8.0 mph /  12.9 km/h 18.0 mph /  29 km/h 70 % 0.00 in /  0 mm 60 W/m2
19:07 52.2 °F /  11.2 °C 42.7 °F /  5.9 °C 30.37 in /  1028.3 hPa WNW 9.0 mph /  14.5 km/h 18.0 mph /  29 km/h 70 % 0.00 in /  0 mm 54 W/m2
19:12 52.0 °F /  11.1 °C 42.5 °F /  5.8 °C 30.37 in /  1028.3 hPa WNW 9.0 mph /  14.5 km/h 14.0 mph /  22.5 km/h 70 % 0.00 in /  0 mm 33 W/m2
19:17 51.6 °F /  10.9 °C 42.2 °F /  5.7 °C 30.37 in /  1028.3 hPa WNW 8.0 mph /  12.9 km/h 14.0 mph /  22.5 km/h 70 % 0.00 in /  0 mm 28 W/m2
19:22 51.4 °F /  10.8 °C 42.0 °F /  5.6 °C 30.38 in /  1028.7 hPa WNW 8.0 mph /  12.9 km/h 13.0 mph /  20.9 km/h 70 % 0.00 in /  0 mm 23 W/m2
19:25 51.3 °F /  10.7 °C 42.2 °F /  5.7 °C 30.38 in /  1028.7 hPa WNW 7.0 mph /  11.3 km/h 12.0 mph /  19.3 km/h 71 % 0.00 in /  0 mm 23 W/m2
19:30 51.1 °F /  10.6 °C 42.4 °F /  5.8 °C 30.38 in /  1028.7 hPa WNW 6.0 mph /  9.7 km/h 11.0 mph /  17.7 km/h 72 % 0.00 in /  0 mm 19 W/m2
19:35 50.7 °F /  10.4 °C 42.0 °F /  5.6 °C 30.38 in /  1028.7 hPa WNW 6.0 mph /  9.7 km/h 13.0 mph /  20.9 km/h 72 % 0.00 in /  0 mm 12 W/m2
19:40 50.5 °F /  10.3 °C 41.8 °F /  5.4 °C 30.38 in /  1028.7 hPa WNW 7.0 mph /  11.3 km/h 14.0 mph /  22.5 km/h 72 % 0.00 in /  0 mm 9 W/m2
19:45 50.4 °F /  10.2 °C 42.0 °F /  5.6 °C 30.38 in /  1028.7 hPa WNW 7.0 mph /  11.3 km/h 14.0 mph /  22.5 km/h 73 % 0.00 in /  0 mm 5 W/m2
19:50 50.0 °F /  10 °C 41.7 °F /  5.4 °C 30.38 in /  1028.7 hPa WNW 6.0 mph /  9.7 km/h 12.0 mph /  19.3 km/h 73 % 0.00 in /  0 mm 0 W/m2
19:55 49.8 °F /  9.9 °C 41.5 °F /  5.3 °C 30.39 in /  1029 hPa WNW 7.0 mph /  11.3 km/h 12.0 mph /  19.3 km/h 73 % 0.00 in /  0 mm 0 W/m2
20:00 49.6 °F /  9.8 °C 41.7 °F /  5.4 °C 30.39 in /  1029 hPa WNW 6.0 mph /  9.7 km/h 13.0 mph /  20.9 km/h 74 % 0.00 in /  0 mm 0 W/m2
20:01 49.6 °F /  9.8 °C 41.7 °F /  5.4 °C 30.39 in /  1029 hPa WNW 7.0 mph /  11.3 km/h 15.0 mph /  24.1 km/h 74 % 0.00 in /  0 mm 0 W/m2
20:06 49.5 °F /  9.7 °C 41.5 °F /  5.3 °C 30.39 in /  1029 hPa WNW 8.0 mph /  12.9 km/h 15.0 mph /  24.1 km/h 74 % 0.00 in /  0 mm 0 W/m2
20:11 49.3 °F /  9.6 °C 41.3 °F /  5.2 °C 30.40 in /  1029.3 hPa WNW 8.0 mph /  12.9 km/h 15.0 mph /  24.1 km/h 74 % 0.00 in /  0 mm 0 W/m2
20:16 49.1 °F /  9.5 °C 41.2 °F /  5.1 °C 30.40 in /  1029.3 hPa WNW 9.0 mph /  14.5 km/h 18.0 mph /  29 km/h 74 % 0.00 in /  0 mm 0 W/m2
20:21 48.9 °F /  9.4 °C 41.0 °F /  5 °C 30.40 in /  1029.3 hPa WNW 10.0 mph /  16.1 km/h 18.0 mph /  29 km/h 74 % 0.00 in /  0 mm 0 W/m2
20:26 48.7 °F /  9.3 °C 40.8 °F /  4.9 °C 30.40 in /  1029.3 hPa WNW 9.0 mph /  14.5 km/h 15.0 mph /  24.1 km/h 74 % 0.00 in /  0 mm 0 W/m2
20:32 48.7 °F /  9.3 °C 40.8 °F /  4.9 °C 30.40 in /  1029.3 hPa WNW 9.0 mph /  14.5 km/h 18.0 mph /  29 km/h 74 % 0.00 in /  0 mm 0 W/m2
20:37 48.6 °F /  9.2 °C 40.6 °F /  4.8 °C 30.40 in /  1029.3 hPa WNW 9.0 mph /  14.5 km/h 18.0 mph /  29 km/h 74 % 0.00 in /  0 mm 0 W/m2
20:42 48.4 °F /  9.1 °C 40.5 °F /  4.7 °C 30.40 in /  1029.3 hPa WNW 8.0 mph /  12.9 km/h 14.0 mph /  22.5 km/h 74 % 0.00 in /  0 mm 0 W/m2
20:47 48.4 °F /  9.1 °C 40.8 °F /  4.9 °C 30.41 in /  1029.7 hPa WNW 7.0 mph /  11.3 km/h 14.0 mph /  22.5 km/h 75 % 0.00 in /  0 mm 0 W/m2
20:52 48.0 °F /  8.9 °C 40.5 °F /  4.7 °C 30.40 in /  1029.3 hPa WNW 6.0 mph /  9.7 km/h 11.0 mph /  17.7 km/h 75 % 0.00 in /  0 mm 0 W/m2
20:57 47.8 °F /  8.8 °C 40.3 °F /  4.6 °C 30.41 in /  1029.7 hPa WNW 5.0 mph /  8 km/h 11.0 mph /  17.7 km/h 75 % 0.00 in /  0 mm 0 W/m2
21:02 47.8 °F /  8.8 °C 40.3 °F /  4.6 °C 30.41 in /  1029.7 hPa West 5.0 mph /  8 km/h 11.0 mph /  17.7 km/h 75 % 0.00 in /  0 mm 0 W/m2
21:07 47.7 °F /  8.7 °C 40.5 °F /  4.7 °C 30.41 in /  1029.7 hPa WNW 4.0 mph /  6.4 km/h 11.0 mph /  17.7 km/h 76 % 0.00 in /  0 mm 0 W/m2
21:12 47.7 °F /  8.7 °C 40.5 °F /  4.7 °C 30.41 in /  1029.7 hPa WNW 4.0 mph /  6.4 km/h 10.0 mph /  16.1 km/h 76 % 0.00 in /  0 mm 0 W/m2
21:17 47.5 °F /  8.6 °C 40.3 °F /  4.6 °C 30.41 in /  1029.7 hPa WNW 4.0 mph /  6.4 km/h 8.0 mph /  12.9 km/h 76 % 0.00 in /  0 mm 0 W/m2
21:22 47.3 °F /  8.5 °C 40.5 °F /  4.7 °C 30.41 in /  1029.7 hPa WNW 5.0 mph /  8 km/h 10.0 mph /  16.1 km/h 77 % 0.00 in /  0 mm 0 W/m2
21:27 47.1 °F /  8.4 °C 40.3 °F /  4.6 °C 30.41 in /  1029.7 hPa WNW 6.0 mph /  9.7 km/h 10.0 mph /  16.1 km/h 77 % 0.00 in /  0 mm 0 W/m2
21:32 47.1 °F /  8.4 °C 40.3 °F /  4.6 °C 30.41 in /  1029.7 hPa WNW 6.0 mph /  9.7 km/h 11.0 mph /  17.7 km/h 77 % 0.00 in /  0 mm 0 W/m2
21:37 46.9 °F /  8.3 °C 40.1 °F /  4.5 °C 30.41 in /  1029.7 hPa WNW 5.0 mph /  8 km/h 11.0 mph /  17.7 km/h 77 % 0.00 in /  0 mm 0 W/m2
21:42 46.8 °F /  8.2 °C 39.9 °F /  4.4 °C 30.42 in /  1030 hPa West 3.0 mph /  4.8 km/h 8.0 mph /  12.9 km/h 77 % 0.00 in /  0 mm 0 W/m2
21:47 46.6 °F /  8.1 °C 40.1 °F /  4.5 °C 30.42 in /  1030 hPa WNW 3.0 mph /  4.8 km/h 8.0 mph /  12.9 km/h 78 % 0.00 in /  0 mm 0 W/m2
21:52 46.2 °F /  7.9 °C 39.7 °F /  4.3 °C 30.42 in /  1030 hPa WNW 4.0 mph /  6.4 km/h 9.0 mph /  14.5 km/h 78 % 0.00 in /  0 mm 0 W/m2
21:57 46.2 °F /  7.9 °C 39.7 °F /  4.3 °C 30.42 in /  1030 hPa WNW 5.0 mph /  8 km/h 10.0 mph /  16.1 km/h 78 % 0.00 in /  0 mm 0 W/m2
22:02 46.0 °F /  7.8 °C 39.6 °F /  4.2 °C 30.42 in /  1030 hPa WNW 5.0 mph /  8 km/h 10.0 mph /  16.1 km/h 78 % 0.00 in /  0 mm 0 W/m2
22:07 46.0 °F /  7.8 °C 39.6 °F /  4.2 °C 30.42 in /  1030 hPa WNW 4.0 mph /  6.4 km/h 9.0 mph /  14.5 km/h 78 % 0.00 in /  0 mm 0 W/m2
22:12 45.9 °F /  7.7 °C 39.4 °F /  4.1 °C 30.42 in /  1030 hPa WNW 2.0 mph /  3.2 km/h 9.0 mph /  14.5 km/h 78 % 0.00 in /  0 mm 0 W/m2
22:17 45.9 °F /  7.7 °C 39.4 °F /  4.1 °C 30.42 in /  1030 hPa West 2.0 mph /  3.2 km/h 6.0 mph /  9.7 km/h 78 % 0.00 in /  0 mm 0 W/m2
22:22 45.9 °F /  7.7 °C 39.4 °F /  4.1 °C 30.43 in /  1030.4 hPa West 1.0 mph /  1.6 km/h 6.0 mph /  9.7 km/h 78 % 0.00 in /  0 mm 0 W/m2
22:27 45.7 °F /  7.6 °C 39.2 °F /  4 °C 30.43 in /  1030.4 hPa Calm   4.0 mph /  6.4 km/h 78 % 0.00 in /  0 mm 0 W/m2
22:32 45.3 °F /  7.4 °C 38.9 °F /  3.8 °C 30.43 in /  1030.4 hPa Calm   1.0 mph /  1.6 km/h 78 % 0.00 in /  0 mm 0 W/m2
22:37 45.1 °F /  7.3 °C 39.0 °F /  3.9 °C 30.43 in /  1030.4 hPa Calm   3.0 mph /  4.8 km/h 79 % 0.00 in /  0 mm 0 W/m2
22:42 44.8 °F /  7.1 °C 38.7 °F /  3.7 °C 30.43 in /  1030.4 hPa West 1.0 mph /  1.6 km/h 4.0 mph /  6.4 km/h 79 % 0.00 in /  0 mm 0 W/m2
22:47 44.8 °F /  7.1 °C 39.0 °F /  3.9 °C 30.43 in /  1030.4 hPa WNW 1.0 mph /  1.6 km/h 4.0 mph /  6.4 km/h 80 % 0.00 in /  0 mm 0 W/m2
22:52 44.6 °F /  7 °C 38.8 °F /  3.8 °C 30.43 in /  1030.4 hPa WNW 2.0 mph /  3.2 km/h 9.0 mph /  14.5 km/h 80 % 0.00 in /  0 mm 0 W/m2
22:57 44.6 °F /  7 °C 38.8 °F /  3.8 °C 30.43 in /  1030.4 hPa WNW 4.0 mph /  6.4 km/h 10.0 mph /  16.1 km/h 80 % 0.00 in /  0 mm 0 W/m2
23:02 44.6 °F /  7 °C 38.8 °F /  3.8 °C 30.43 in /  1030.4 hPa WNW 6.0 mph /  9.7 km/h 13.0 mph /  20.9 km/h 80 % 0.00 in /  0 mm 0 W/m2
23:07 44.6 °F /  7 °C 38.8 °F /  3.8 °C 30.43 in /  1030.4 hPa WNW 7.0 mph /  11.3 km/h 13.0 mph /  20.9 km/h 80 % 0.00 in /  0 mm 0 W/m2
23:12 44.6 °F /  7 °C 38.8 °F /  3.8 °C 30.43 in /  1030.4 hPa WNW 5.0 mph /  8 km/h 10.0 mph /  16.1 km/h 80 % 0.00 in /  0 mm 0 W/m2
23:17 44.4 °F /  6.9 °C 38.6 °F /  3.7 °C 30.43 in /  1030.4 hPa WNW 4.0 mph /  6.4 km/h 9.0 mph /  14.5 km/h 80 % 0.00 in /  0 mm 0 W/m2
23:22 44.4 °F /  6.9 °C 38.6 °F /  3.7 °C 30.43 in /  1030.4 hPa WNW 3.0 mph /  4.8 km/h 9.0 mph /  14.5 km/h 80 % 0.00 in /  0 mm 0 W/m2
23:27 44.2 °F /  6.8 °C 38.5 °F /  3.6 °C 30.43 in /  1030.4 hPa WNW 2.0 mph /  3.2 km/h 8.0 mph /  12.9 km/h 80 % 0.00 in /  0 mm 0 W/m2
23:32 44.2 °F /  6.8 °C 38.5 °F /  3.6 °C 30.43 in /  1030.4 hPa WNW 4.0 mph /  6.4 km/h 13.0 mph /  20.9 km/h 80 % 0.00 in /  0 mm 0 W/m2
23:37 44.2 °F /  6.8 °C 38.5 °F /  3.6 °C 30.43 in /  1030.4 hPa WNW 5.0 mph /  8 km/h 13.0 mph /  20.9 km/h 80 % 0.00 in /  0 mm 0 W/m2
23:43 44.2 °F /  6.8 °C 38.5 °F /  3.6 °C 30.43 in /  1030.4 hPa WNW 6.0 mph /  9.7 km/h 11.0 mph /  17.7 km/h 80 % 0.00 in /  0 mm 0 W/m2
23:48 44.2 °F /  6.8 °C 38.5 °F /  3.6 °C 30.42 in /  1030 hPa WNW 6.0 mph /  9.7 km/h 12.0 mph /  19.3 km/h 80 % 0.00 in /  0 mm 0 W/m2
23:53 44.2 °F /  6.8 °C 38.5 °F /  3.6 °C 30.42 in /  1030 hPa WNW 6.0 mph /  9.7 km/h 12.0 mph /  19.3 km/h 80 % 0.00 in /  0 mm 0 W/m2
23:58 44.2 °F /  6.8 °C 38.5 °F /  3.6 °C 30.42 in /  1030 hPa WNW 4.0 mph /  6.4 km/h 11.0 mph /  17.7 km/h 80 % 0.00 in /  0 mm 0 W/m2
Delerius-Weather
Compliments of Weather Underground - 2.25 mb

Data updates at regular intervals.